createdAt,value
2019-01-13T00:00:00.249Z,3.20
2019-01-13T00:01:00.225Z,3.50
2019-01-13T00:02:00.244Z,3.10
2019-01-13T00:03:00.202Z,3.30
2019-01-13T00:04:00.193Z,3.30
2019-01-13T00:05:00.184Z,3.60
2019-01-13T00:06:00.169Z,3.50
2019-01-13T00:07:00.160Z,3.60
2019-01-13T00:08:00.163Z,3.30
2019-01-13T00:09:00.151Z,3.80
2019-01-13T00:10:00.244Z,4.10
2019-01-13T00:11:00.118Z,3.60
2019-01-13T00:12:00.185Z,3.60
2019-01-13T00:13:00.096Z,3.50
2019-01-13T00:14:00.082Z,4.00
2019-01-13T00:15:00.093Z,4.00
2019-01-13T00:16:00.062Z,3.50
2019-01-13T00:17:00.053Z,4.20
2019-01-13T00:18:00.070Z,3.90
2019-01-13T00:19:00.032Z,4.40
2019-01-13T00:20:00.019Z,4.40
2019-01-13T00:21:00.008Z,4.40
2019-01-13T00:21:59.997Z,4.20
2019-01-13T00:22:59.988Z,4.00
2019-01-13T00:23:59.990Z,5.00
2019-01-13T00:25:00.009Z,4.00
2019-01-13T00:25:59.956Z,4.20
2019-01-13T00:26:59.945Z,4.30
2019-01-13T00:27:59.936Z,4.40
2019-01-13T00:28:59.922Z,4.00
2019-01-13T00:29:59.915Z,3.60
2019-01-13T00:30:59.926Z,4.00
2019-01-13T00:31:59.891Z,4.30
2019-01-13T00:32:59.880Z,3.80
2019-01-13T00:33:59.874Z,4.70
2019-01-13T00:34:59.860Z,4.50
2019-01-13T00:35:59.853Z,3.80
2019-01-13T00:36:59.853Z,3.90
2019-01-13T00:37:59.830Z,4.30
2019-01-13T00:38:59.824Z,4.10
2019-01-13T00:39:59.806Z,4.20
2019-01-13T00:40:59.808Z,4.60
2019-01-13T00:41:59.790Z,4.60
2019-01-13T00:42:59.786Z,4.00
2019-01-13T00:43:59.768Z,3.50
2019-01-13T00:44:59.753Z,4.50
2019-01-13T00:45:59.755Z,4.10
2019-01-13T00:46:59.732Z,3.90
2019-01-13T00:47:59.781Z,4.00
2019-01-13T00:48:59.710Z,3.90
2019-01-13T00:49:59.701Z,4.10
2019-01-13T00:50:59.690Z,4.50
2019-01-13T00:51:59.683Z,4.30
2019-01-13T00:52:59.666Z,4.30
2019-01-13T00:53:59.679Z,4.10
2019-01-13T00:54:59.644Z,4.00
2019-01-13T00:55:59.634Z,4.40
2019-01-13T00:56:59.629Z,4.40
2019-01-13T00:57:59.612Z,4.50
2019-01-13T00:58:59.615Z,4.10
2019-01-13T00:59:59.593Z,4.00
2019-01-13T01:00:59.583Z,4.20
2019-01-13T01:01:59.596Z,4.90
2019-01-13T01:02:59.561Z,4.80
2019-01-13T01:03:59.549Z,4.10
2019-01-13T01:04:59.536Z,4.10
2019-01-13T01:05:59.526Z,4.30
2019-01-13T01:06:59.523Z,3.80
2019-01-13T01:07:59.548Z,4.20
2019-01-13T01:08:59.500Z,3.90
2019-01-13T01:09:59.487Z,4.30
2019-01-13T01:10:59.472Z,4.20
2019-01-13T01:11:59.466Z,4.70
2019-01-13T01:12:59.453Z,4.90
2019-01-13T01:13:59.457Z,4.30
2019-01-13T01:14:59.428Z,4.30
2019-01-13T01:15:59.425Z,4.40
2019-01-13T01:16:59.411Z,4.10
2019-01-13T01:17:59.426Z,4.30
2019-01-13T01:18:59.388Z,4.10
2019-01-13T01:19:59.376Z,4.40
2019-01-13T01:20:59.368Z,4.30
2019-01-13T01:21:59.356Z,4.40
2019-01-13T01:22:59.344Z,4.30
2019-01-13T01:23:59.351Z,4.60
2019-01-13T01:24:59.325Z,4.00
2019-01-13T01:25:59.312Z,4.60
2019-01-13T01:26:59.302Z,4.10
2019-01-13T01:27:59.290Z,5.70
2019-01-13T01:28:59.300Z,4.60
2019-01-13T01:29:59.270Z,5.10
2019-01-13T01:30:59.261Z,4.30
2019-01-13T01:31:59.253Z,4.30
2019-01-13T01:32:59.237Z,4.90
2019-01-13T01:33:59.241Z,4.00
2019-01-13T01:34:59.219Z,4.70
2019-01-13T01:35:59.208Z,4.40
2019-01-13T01:36:59.195Z,4.90
2019-01-13T01:37:59.183Z,3.50
2019-01-13T01:38:59.186Z,4.40
2019-01-13T01:39:59.164Z,4.80
2019-01-13T01:40:59.164Z,4.10
2019-01-13T01:41:59.155Z,3.50
2019-01-13T01:42:59.133Z,5.00
2019-01-13T01:43:59.122Z,3.90
2019-01-13T01:44:59.118Z,4.30
2019-01-13T01:45:59.100Z,3.90
2019-01-13T01:46:59.105Z,4.90
2019-01-13T01:47:59.079Z,3.80
2019-01-13T01:48:59.084Z,4.50
2019-01-13T01:49:59.070Z,4.10
2019-01-13T01:50:59.046Z,4.90
2019-01-13T01:51:59.035Z,4.70
2019-01-13T01:52:59.036Z,5.00
2019-01-13T01:53:59.012Z,5.10
2019-01-13T01:54:59.003Z,4.10
2019-01-13T01:55:58.989Z,4.60
2019-01-13T01:56:58.978Z,4.50
2019-01-13T01:57:58.984Z,5.00
2019-01-13T01:58:58.964Z,5.00
2019-01-13T01:59:58.981Z,5.20
2019-01-13T02:00:58.935Z,4.80
2019-01-13T02:01:58.925Z,5.00
2019-01-13T02:02:58.943Z,4.80
2019-01-13T02:03:58.904Z,4.80
2019-01-13T02:04:58.891Z,4.60
2019-01-13T02:05:58.935Z,5.30
2019-01-13T02:06:58.873Z,5.10
2019-01-13T02:07:58.861Z,5.40
2019-01-13T02:08:58.877Z,4.90
2019-01-13T02:09:58.844Z,4.80
2019-01-13T02:10:58.829Z,4.90
2019-01-13T02:11:58.821Z,5.20
2019-01-13T02:12:58.809Z,5.20
2019-01-13T02:13:58.798Z,5.20
2019-01-13T02:14:58.798Z,5.10
2019-01-13T02:15:58.773Z,4.90
2019-01-13T02:16:58.770Z,5.20
2019-01-13T02:17:58.754Z,5.10
2019-01-13T02:18:58.741Z,5.60
2019-01-13T02:19:58.747Z,5.50
2019-01-13T02:20:58.719Z,5.30
2019-01-13T02:21:58.710Z,5.50
2019-01-13T02:22:58.698Z,5.90
2019-01-13T02:23:58.689Z,5.90
2019-01-13T02:24:58.692Z,5.80
2019-01-13T02:25:58.666Z,5.60
2019-01-13T02:26:58.665Z,6.00
2019-01-13T02:27:58.645Z,5.70
2019-01-13T02:28:58.634Z,6.30
2019-01-13T02:29:58.638Z,5.70
2019-01-13T02:30:58.613Z,6.00
2019-01-13T02:31:58.603Z,5.60
2019-01-13T02:32:58.590Z,5.80
2019-01-13T02:33:58.592Z,6.50
2019-01-13T02:34:58.569Z,5.60
2019-01-13T02:35:58.571Z,5.90
2019-01-13T02:36:58.563Z,6.00
2019-01-13T02:37:58.539Z,5.80
2019-01-13T02:38:58.536Z,5.20
2019-01-13T02:39:58.513Z,6.40
2019-01-13T02:40:58.501Z,6.20
2019-01-13T02:41:58.490Z,6.40
2019-01-13T02:42:58.514Z,6.70
2019-01-13T02:43:58.474Z,6.70
2019-01-13T02:44:58.458Z,7.10
2019-01-13T02:45:58.446Z,6.30
2019-01-13T02:46:58.435Z,6.70
2019-01-13T02:47:58.424Z,7.10
2019-01-13T02:48:58.434Z,6.60
2019-01-13T02:49:58.405Z,7.30
2019-01-13T02:50:58.395Z,7.10
2019-01-13T02:51:58.400Z,7.30
2019-01-13T02:52:58.373Z,7.20
2019-01-13T02:53:58.364Z,7.50
2019-01-13T02:54:58.366Z,7.20
2019-01-13T02:55:58.358Z,7.50
2019-01-13T02:56:58.329Z,7.30
2019-01-13T02:57:58.317Z,7.30
2019-01-13T02:58:58.305Z,8.00
2019-01-13T02:59:58.311Z,7.30
2019-01-13T03:00:58.286Z,8.00
2019-01-13T03:01:58.288Z,8.40
2019-01-13T03:02:58.262Z,8.30
2019-01-13T03:03:58.253Z,8.50
2019-01-13T03:04:58.243Z,8.10
2019-01-13T03:05:58.246Z,8.90
2019-01-13T03:06:58.219Z,8.20
2019-01-13T03:07:58.209Z,9.10
2019-01-13T03:08:58.213Z,9.20
2019-01-13T03:09:58.189Z,9.40
2019-01-13T03:10:58.176Z,10.70
2019-01-13T03:11:58.166Z,10.00
2019-01-13T03:12:58.156Z,11.00
2019-01-13T03:13:58.156Z,10.20
2019-01-13T03:14:58.130Z,11.60
2019-01-13T03:15:58.136Z,11.60
2019-01-13T03:16:58.114Z,11.30
2019-01-13T03:17:58.114Z,10.60
2019-01-13T03:18:58.107Z,10.90
2019-01-13T03:19:58.076Z,11.40
2019-01-13T03:20:58.067Z,11.20
2019-01-13T03:21:58.055Z,11.00
2019-01-13T03:22:58.046Z,11.30
2019-01-13T03:23:58.033Z,11.50
2019-01-13T03:24:58.055Z,10.40
2019-01-13T03:25:58.012Z,10.80
2019-01-13T03:26:58.000Z,10.60
2019-01-13T03:27:57.992Z,11.80
2019-01-13T03:28:57.979Z,11.30
2019-01-13T03:29:57.970Z,11.40
2019-01-13T03:31:10.684Z,11.20
2019-01-13T03:31:58.947Z,11.00
2019-01-13T03:32:57.950Z,10.80
2019-01-13T03:33:57.948Z,10.50
2019-01-13T03:34:57.917Z,11.10
2019-01-13T03:35:57.911Z,11.30
2019-01-13T03:36:57.896Z,11.50
2019-01-13T03:37:57.883Z,10.80
2019-01-13T03:38:57.875Z,10.80
2019-01-13T03:39:57.877Z,10.80
2019-01-13T03:40:57.867Z,8.80
2019-01-13T03:41:57.843Z,10.60
2019-01-13T03:42:57.838Z,10.60
2019-01-13T03:43:57.821Z,10.80
2019-01-13T03:44:57.825Z,10.60
2019-01-13T03:45:57.801Z,9.70
2019-01-13T03:46:57.788Z,9.80
2019-01-13T03:47:57.776Z,11.30
2019-01-13T03:48:57.806Z,9.60
2019-01-13T03:49:57.768Z,11.50
2019-01-13T03:50:57.747Z,11.30
2019-01-13T03:51:57.735Z,11.20
2019-01-13T03:52:57.727Z,10.90
2019-01-13T03:53:57.725Z,10.00
2019-01-13T03:54:57.716Z,10.60
2019-01-13T03:55:57.692Z,10.30
2019-01-13T03:56:57.679Z,11.10
2019-01-13T03:57:57.699Z,11.20
2019-01-13T03:58:57.666Z,10.20
2019-01-13T03:59:57.648Z,10.00
2019-01-13T04:00:57.638Z,11.50
2019-01-13T04:01:57.628Z,12.10
2019-01-13T04:02:57.619Z,12.40
2019-01-13T04:03:57.636Z,12.10
2019-01-13T04:04:57.595Z,11.80
2019-01-13T04:05:57.584Z,12.40
2019-01-13T04:06:57.575Z,12.60
2019-01-13T04:07:57.577Z,11.70
2019-01-13T04:08:57.551Z,12.30
2019-01-13T04:09:57.539Z,11.70
2019-01-13T04:10:57.530Z,13.50
2019-01-13T04:11:57.519Z,12.40
2019-01-13T04:12:57.521Z,12.50
2019-01-13T04:13:57.498Z,12.90
2019-01-13T04:14:57.486Z,13.60
2019-01-13T04:15:57.475Z,12.50
2019-01-13T04:16:57.477Z,12.80
2019-01-13T04:17:57.472Z,13.00
2019-01-13T04:18:57.456Z,13.90
2019-01-13T04:19:57.432Z,13.10
2019-01-13T04:20:57.418Z,13.20
2019-01-13T04:21:57.410Z,13.90
2019-01-13T04:22:57.396Z,10.90
2019-01-13T04:23:57.400Z,13.60
2019-01-13T04:24:57.374Z,13.40
2019-01-13T04:25:57.366Z,14.40
2019-01-13T04:26:57.357Z,14.30
2019-01-13T04:27:57.343Z,14.20
2019-01-13T04:28:57.371Z,14.60
2019-01-13T04:29:57.323Z,13.60
2019-01-13T04:30:57.310Z,12.40
2019-01-13T04:31:57.301Z,15.60
2019-01-13T04:32:57.292Z,15.10
2019-01-13T04:33:57.279Z,14.10
2019-01-13T04:34:57.281Z,15.40
2019-01-13T04:35:57.263Z,14.00
2019-01-13T04:36:57.248Z,15.50
2019-01-13T04:37:57.237Z,16.60
2019-01-13T04:38:57.225Z,20.30
2019-01-13T04:39:57.250Z,15.70
2019-01-13T04:40:57.204Z,16.50
2019-01-13T04:41:57.197Z,14.80
2019-01-13T04:42:57.183Z,15.40
2019-01-13T04:43:57.171Z,15.70
2019-01-13T04:44:57.159Z,15.30
2019-01-13T04:45:57.165Z,14.80
2019-01-13T04:46:57.138Z,15.70
2019-01-13T04:47:57.127Z,14.10
2019-01-13T04:48:57.134Z,16.30
2019-01-13T04:49:57.110Z,15.20
2019-01-13T04:50:57.133Z,15.30
2019-01-13T04:51:57.087Z,15.10
2019-01-13T04:52:57.076Z,15.20
2019-01-13T04:53:57.065Z,14.10
2019-01-13T04:54:57.055Z,16.10
2019-01-13T04:55:57.043Z,14.60
2019-01-13T04:56:57.051Z,15.50
2019-01-13T04:57:57.019Z,15.60
2019-01-13T04:58:57.010Z,15.00
2019-01-13T04:59:57.001Z,14.70
2019-01-13T05:00:56.990Z,15.50
2019-01-13T05:01:56.976Z,14.70
2019-01-13T05:02:57.013Z,14.80
2019-01-13T05:03:56.959Z,15.80
2019-01-13T05:04:56.949Z,14.90
2019-01-13T05:05:56.936Z,14.20
2019-01-13T05:06:56.928Z,15.30
2019-01-13T05:07:56.912Z,14.60
2019-01-13T05:08:56.918Z,14.60
2019-01-13T05:09:56.908Z,13.60
2019-01-13T05:10:56.878Z,15.00
2019-01-13T05:11:56.873Z,15.20
2019-01-13T05:12:56.861Z,15.30
2019-01-13T05:13:56.863Z,15.20
2019-01-13T05:14:56.840Z,14.80
2019-01-13T05:15:56.831Z,13.90
2019-01-13T05:16:56.816Z,14.10
2019-01-13T05:17:56.811Z,13.00
2019-01-13T05:18:56.819Z,15.00
2019-01-13T05:19:56.783Z,14.10
2019-01-13T05:20:56.773Z,14.50
2019-01-13T05:21:56.763Z,14.80
2019-01-13T05:22:56.818Z,14.40
2019-01-13T05:23:56.744Z,14.30
2019-01-13T05:24:56.748Z,14.90
2019-01-13T05:25:56.727Z,14.00
2019-01-13T05:26:56.709Z,14.50
2019-01-13T05:27:56.699Z,14.90
2019-01-13T05:28:56.704Z,14.20
2019-01-13T05:29:56.718Z,14.00
2019-01-13T05:30:56.667Z,13.80
2019-01-13T05:31:56.659Z,13.10
2019-01-13T05:32:56.654Z,13.70
2019-01-13T05:33:56.635Z,13.30
2019-01-13T05:34:56.627Z,14.30
2019-01-13T05:35:56.629Z,13.80
2019-01-13T05:36:56.603Z,13.90
2019-01-13T05:37:56.592Z,14.10
2019-01-13T05:38:56.584Z,11.90
2019-01-13T05:39:56.571Z,13.00
2019-01-13T05:40:56.578Z,14.00
2019-01-13T05:41:56.567Z,14.20
2019-01-13T05:42:56.538Z,13.60
2019-01-13T05:43:56.528Z,14.00
2019-01-13T05:44:56.516Z,13.80
2019-01-13T05:45:56.508Z,13.20
2019-01-13T05:46:56.525Z,14.20
2019-01-13T05:47:56.488Z,14.20
2019-01-13T05:48:56.476Z,14.40
2019-01-13T05:49:56.465Z,13.20
2019-01-13T05:50:56.449Z,14.60
2019-01-13T05:51:56.440Z,14.80
2019-01-13T05:52:56.448Z,12.50
2019-01-13T05:53:56.419Z,14.50
2019-01-13T05:54:56.408Z,14.10
2019-01-13T05:55:56.399Z,14.10
2019-01-13T05:56:56.385Z,13.80
2019-01-13T05:57:56.395Z,13.70
2019-01-13T05:58:56.365Z,13.70
2019-01-13T05:59:56.353Z,13.00
2019-01-13T06:00:56.343Z,14.40
2019-01-13T06:01:56.330Z,13.70
2019-01-13T06:02:56.319Z,14.30
2019-01-13T06:03:56.322Z,15.00
2019-01-13T06:04:56.296Z,13.80
2019-01-13T06:05:56.289Z,12.60
2019-01-13T06:06:56.275Z,13.90
2019-01-13T06:07:56.279Z,13.90
2019-01-13T06:08:56.267Z,14.20
2019-01-13T06:09:56.247Z,12.60
2019-01-13T06:10:56.248Z,14.40
2019-01-13T06:11:56.221Z,13.80
2019-01-13T06:12:56.226Z,14.40
2019-01-13T06:13:56.219Z,13.60
2019-01-13T06:14:56.202Z,13.40
2019-01-13T06:15:56.180Z,13.60
2019-01-13T06:16:56.168Z,14.10
2019-01-13T06:17:56.157Z,13.90
2019-01-13T06:18:56.144Z,14.60
2019-01-13T06:19:56.171Z,15.10
2019-01-13T06:20:56.122Z,14.90
2019-01-13T06:21:56.111Z,15.60
2019-01-13T06:22:56.103Z,13.50
2019-01-13T06:23:56.091Z,14.30
2019-01-13T06:24:56.079Z,13.00
2019-01-13T06:25:56.083Z,14.10
2019-01-13T06:26:56.059Z,14.10
2019-01-13T06:27:56.048Z,14.50
2019-01-13T06:28:56.035Z,14.00
2019-01-13T06:29:56.028Z,15.30
2019-01-13T06:30:56.029Z,14.70
2019-01-13T06:31:56.544Z,15.80
2019-01-13T06:32:55.995Z,14.80
2019-01-13T06:33:55.983Z,15.00
2019-01-13T06:34:55.971Z,15.20
2019-01-13T06:35:56.001Z,16.10
2019-01-13T06:36:55.951Z,15.00
2019-01-13T06:37:55.937Z,14.80
2019-01-13T06:38:55.926Z,15.70
2019-01-13T06:39:55.916Z,15.60
2019-01-13T06:40:55.906Z,14.70
2019-01-13T06:41:55.911Z,15.90
2019-01-13T06:42:55.886Z,16.60
2019-01-13T06:43:55.872Z,14.60
2019-01-13T06:44:55.865Z,16.10
2019-01-13T06:45:55.866Z,16.20
2019-01-13T06:46:55.839Z,14.50
2019-01-13T06:47:55.845Z,15.40
2019-01-13T06:48:55.818Z,15.40
2019-01-13T06:49:55.812Z,15.30
2019-01-13T06:50:55.796Z,14.50
2019-01-13T06:51:55.786Z,14.30
2019-01-13T06:52:55.800Z,12.90
2019-01-13T06:53:55.764Z,13.90
2019-01-13T06:54:55.755Z,12.30
2019-01-13T06:55:55.744Z,13.90
2019-01-13T06:56:55.734Z,13.80
2019-01-13T06:57:55.720Z,13.70
2019-01-13T06:58:55.726Z,14.90
2019-01-13T06:59:55.699Z,13.30
2019-01-13T07:00:55.691Z,13.90
2019-01-13T07:01:55.678Z,14.50
2019-01-13T07:02:55.682Z,11.40
2019-01-13T07:03:55.658Z,13.80
2019-01-13T07:04:55.645Z,11.30
2019-01-13T07:05:55.639Z,13.00
2019-01-13T07:06:55.626Z,13.60
2019-01-13T07:07:55.628Z,11.20
2019-01-13T07:08:55.603Z,13.40
2019-01-13T07:09:55.627Z,12.80
2019-01-13T07:10:55.585Z,12.00
2019-01-13T07:11:55.571Z,11.90
2019-01-13T07:12:55.560Z,10.70
2019-01-13T07:13:55.552Z,10.90
2019-01-13T07:14:55.541Z,11.30
2019-01-13T07:15:55.542Z,11.30
2019-01-13T07:16:55.519Z,9.70
2019-01-13T07:17:55.541Z,10.60
2019-01-13T07:18:55.511Z,10.00
2019-01-13T07:19:55.484Z,9.40
2019-01-13T07:20:55.477Z,10.10
2019-01-13T07:21:55.465Z,9.80
2019-01-13T07:22:55.454Z,10.20
2019-01-13T07:23:55.456Z,10.50
2019-01-13T07:24:55.432Z,9.40
2019-01-13T07:25:55.421Z,9.40
2019-01-13T07:26:55.410Z,10.00
2019-01-13T07:27:55.397Z,10.40
2019-01-13T07:28:55.400Z,9.70
2019-01-13T07:29:55.375Z,8.80
2019-01-13T07:30:55.368Z,9.20
2019-01-13T07:31:55.356Z,10.40
2019-01-13T07:32:55.359Z,11.00
2019-01-13T07:33:55.335Z,11.00
2019-01-13T07:34:55.325Z,10.70
2019-01-13T07:35:55.310Z,10.70
2019-01-13T07:36:55.299Z,11.10
2019-01-13T07:37:55.303Z,11.20
2019-01-13T07:38:55.281Z,10.40
2019-01-13T07:39:55.267Z,10.50
2019-01-13T07:40:55.272Z,11.80
2019-01-13T07:41:55.249Z,13.50
2019-01-13T07:42:55.252Z,13.60
2019-01-13T07:43:55.229Z,14.30
2019-01-13T07:44:55.213Z,11.60
2019-01-13T07:45:55.204Z,13.80
2019-01-13T07:46:55.206Z,13.40
2019-01-13T07:47:55.204Z,14.50
2019-01-13T07:48:55.171Z,13.80
2019-01-13T07:49:55.162Z,14.80
2019-01-13T07:50:55.149Z,13.60
2019-01-13T07:51:55.142Z,14.90
2019-01-13T07:52:55.137Z,15.20
2019-01-13T07:53:55.131Z,14.40
2019-01-13T07:54:55.107Z,13.70
2019-01-13T07:55:55.094Z,14.70
2019-01-13T07:56:55.085Z,12.50
2019-01-13T07:57:55.077Z,13.00
2019-01-13T07:58:55.073Z,13.90
2019-01-13T07:59:55.051Z,14.20
2019-01-13T08:00:55.053Z,13.60
2019-01-13T08:01:55.032Z,13.40
2019-01-13T08:02:55.020Z,15.50
2019-01-13T08:03:55.008Z,14.20
2019-01-13T08:04:55.001Z,15.50
2019-01-13T08:05:54.997Z,14.40
2019-01-13T08:06:54.978Z,13.60
2019-01-13T08:07:54.972Z,13.70
2019-01-13T08:08:54.954Z,14.20
2019-01-13T08:09:54.944Z,15.00
2019-01-13T08:10:54.946Z,13.70
2019-01-13T08:11:54.950Z,14.90
2019-01-13T08:12:54.917Z,13.60
2019-01-13T08:13:54.904Z,13.30
2019-01-13T08:14:54.889Z,15.50
2019-01-13T08:15:54.878Z,14.20
2019-01-13T08:16:54.872Z,15.30
2019-01-13T08:17:54.869Z,12.40
2019-01-13T08:18:54.848Z,13.80
2019-01-13T08:19:54.835Z,13.00
2019-01-13T08:20:54.826Z,13.30
2019-01-13T08:21:54.826Z,12.00
2019-01-13T08:22:54.801Z,13.80
2019-01-13T08:23:54.793Z,14.70
2019-01-13T08:24:54.783Z,15.40
2019-01-13T08:25:54.768Z,14.20
2019-01-13T08:26:54.771Z,14.50
2019-01-13T08:27:54.783Z,13.90
2019-01-13T08:28:54.739Z,14.30
2019-01-13T08:29:54.725Z,15.00
2019-01-13T08:30:54.714Z,11.20
2019-01-13T08:31:54.706Z,14.10
2019-01-13T08:32:54.697Z,11.60
2019-01-13T08:33:54.692Z,12.30
2019-01-13T08:34:54.674Z,12.80
2019-01-13T08:35:54.659Z,13.70
2019-01-13T08:36:54.648Z,12.70
2019-01-13T08:37:54.648Z,13.70
2019-01-13T08:38:54.658Z,10.60
2019-01-13T08:39:54.617Z,10.90
2019-01-13T08:40:54.607Z,10.60
2019-01-13T08:41:54.593Z,12.40
2019-01-13T08:42:54.584Z,13.20
2019-01-13T08:43:54.571Z,10.90
2019-01-13T08:44:54.596Z,11.30
2019-01-13T08:45:54.552Z,12.20
2019-01-13T08:46:54.541Z,12.00
2019-01-13T08:47:54.533Z,12.40
2019-01-13T08:48:54.522Z,11.50
2019-01-13T08:49:54.515Z,11.90
2019-01-13T08:50:54.515Z,11.00
2019-01-13T08:51:54.484Z,11.20
2019-01-13T08:52:54.475Z,11.50
2019-01-13T08:53:54.465Z,11.80
2019-01-13T08:54:54.451Z,11.50
2019-01-13T08:55:54.455Z,11.30
2019-01-13T08:56:54.433Z,11.60
2019-01-13T08:57:54.418Z,10.30
2019-01-13T08:58:54.409Z,10.40
2019-01-13T08:59:54.408Z,10.40
2019-01-13T09:00:54.395Z,9.10
2019-01-13T09:01:54.375Z,10.80
2019-01-13T09:02:54.366Z,10.10
2019-01-13T09:03:54.353Z,8.70
2019-01-13T09:04:54.341Z,8.90
2019-01-13T09:05:54.368Z,8.80
2019-01-13T09:06:54.322Z,7.90
2019-01-13T09:07:54.308Z,8.40
2019-01-13T09:08:54.298Z,9.10
2019-01-13T09:09:54.289Z,9.30
2019-01-13T09:10:54.320Z,9.10
2019-01-13T09:11:54.293Z,8.10
2019-01-13T09:12:56.825Z,7.20
2019-01-13T09:13:54.243Z,8.70
2019-01-13T09:14:54.231Z,8.10
2019-01-13T09:15:54.224Z,7.30
2019-01-13T09:16:54.210Z,7.20
2019-01-13T09:17:54.215Z,8.00
2019-01-13T09:18:54.196Z,8.60
2019-01-13T09:19:54.177Z,6.30
2019-01-13T09:20:54.167Z,5.50
2019-01-13T09:21:54.157Z,7.00
2019-01-13T09:22:54.156Z,6.00
2019-01-13T09:23:54.137Z,7.60
2019-01-13T09:24:54.126Z,6.90
2019-01-13T09:25:54.115Z,7.10
2019-01-13T09:26:54.104Z,6.70
2019-01-13T09:27:54.103Z,6.60
2019-01-13T09:28:54.083Z,5.70
2019-01-13T09:29:54.114Z,5.60
2019-01-13T09:30:54.059Z,5.90
2019-01-13T09:31:54.051Z,7.00
2019-01-13T09:32:54.049Z,5.90
2019-01-13T09:33:54.040Z,5.80
2019-01-13T09:34:54.014Z,5.70
2019-01-13T09:35:54.004Z,5.90
2019-01-13T09:36:53.997Z,6.30
2019-01-13T09:37:53.985Z,4.90
2019-01-13T09:38:53.992Z,5.20
2019-01-13T09:39:53.961Z,6.30
2019-01-13T09:40:53.952Z,5.50
2019-01-13T09:41:53.941Z,5.70
2019-01-13T09:42:53.927Z,5.30
2019-01-13T09:43:53.922Z,5.80
2019-01-13T09:44:53.919Z,5.90
2019-01-13T09:45:53.894Z,5.30
2019-01-13T09:46:53.886Z,6.00
2019-01-13T09:47:53.873Z,5.40
2019-01-13T09:48:53.906Z,5.20
2019-01-13T09:49:53.862Z,5.00
2019-01-13T09:50:53.841Z,5.40
2019-01-13T09:51:53.833Z,4.40
2019-01-13T09:52:53.851Z,5.20
2019-01-13T09:53:53.810Z,5.50
2019-01-13T09:54:53.814Z,4.70
2019-01-13T09:55:53.790Z,5.50
2019-01-13T09:56:53.790Z,4.90
2019-01-13T09:57:53.771Z,5.00
2019-01-13T09:58:53.755Z,5.70
2019-01-13T09:59:53.744Z,4.90
2019-01-13T10:00:53.761Z,4.80
2019-01-13T10:01:53.726Z,4.30
2019-01-13T10:02:53.712Z,4.60
2019-01-13T10:03:53.703Z,4.70
2019-01-13T10:04:53.692Z,4.60
2019-01-13T10:05:53.678Z,4.80
2019-01-13T10:06:53.681Z,4.70
2019-01-13T10:07:53.657Z,4.40
2019-01-13T10:08:53.650Z,4.70
2019-01-13T10:09:53.637Z,4.90
2019-01-13T10:10:53.627Z,3.20
2019-01-13T10:11:53.626Z,4.20
2019-01-13T10:12:53.602Z,4.20
2019-01-13T10:13:53.606Z,3.80
2019-01-13T10:14:53.581Z,4.00
2019-01-13T10:15:53.570Z,3.20
2019-01-13T10:16:53.576Z,3.20
2019-01-13T10:17:53.548Z,3.80
2019-01-13T10:18:53.541Z,3.80
2019-01-13T10:19:53.528Z,3.70
2019-01-13T10:20:53.518Z,3.60
2019-01-13T10:21:53.507Z,3.00
2019-01-13T10:22:53.514Z,3.20
2019-01-13T10:23:53.500Z,2.90
2019-01-13T10:24:53.476Z,3.20
2019-01-13T10:25:53.464Z,3.30
2019-01-13T10:26:53.451Z,3.10
2019-01-13T10:27:53.454Z,2.60
2019-01-13T10:28:53.429Z,2.30
2019-01-13T10:29:53.424Z,2.60
2019-01-13T10:30:53.408Z,2.50
2019-01-13T10:31:53.399Z,2.20
2019-01-13T10:32:55.067Z,2.50
2019-01-13T10:33:53.376Z,2.00
2019-01-13T10:34:53.366Z,2.50
2019-01-13T10:35:53.354Z,2.00
2019-01-13T10:36:53.343Z,2.40
2019-01-13T10:37:53.365Z,2.20
2019-01-13T10:38:53.324Z,2.30
2019-01-13T10:39:53.310Z,2.00
2019-01-13T10:40:53.302Z,1.80
2019-01-13T10:41:53.292Z,1.40
2019-01-13T10:42:53.279Z,1.90
2019-01-13T10:43:53.297Z,1.50
2019-01-13T10:44:53.260Z,1.40
2019-01-13T10:45:53.246Z,1.40
2019-01-13T10:46:53.238Z,1.70
2019-01-13T10:47:53.224Z,2.10
2019-01-13T10:48:53.217Z,1.90
2019-01-13T10:49:53.221Z,1.60
2019-01-13T10:50:53.196Z,1.70
2019-01-13T10:51:53.187Z,1.80
2019-01-13T10:52:53.171Z,1.40
2019-01-13T10:53:53.176Z,1.50
2019-01-13T10:54:53.151Z,1.40
2019-01-13T10:55:53.139Z,1.40
2019-01-13T10:56:53.127Z,1.30
2019-01-13T10:57:53.117Z,1.40
2019-01-13T10:58:53.123Z,1.30
2019-01-13T10:59:53.126Z,1.50
2019-01-13T11:00:53.087Z,1.40
2019-01-13T11:01:53.074Z,1.30
2019-01-13T11:02:53.063Z,1.50
2019-01-13T11:03:53.051Z,1.50
2019-01-13T11:04:53.042Z,1.40
2019-01-13T11:05:53.049Z,1.40
2019-01-13T11:06:53.021Z,1.40
2019-01-13T11:07:53.012Z,1.50
2019-01-13T11:08:52.998Z,1.40
2019-01-13T11:09:53.041Z,1.20
2019-01-13T11:10:52.978Z,1.50
2019-01-13T11:11:52.968Z,1.20
2019-01-13T11:12:52.958Z,1.80
2019-01-13T11:13:52.946Z,1.40
2019-01-13T11:14:52.955Z,1.30
2019-01-13T11:15:52.923Z,1.20
2019-01-13T11:16:52.913Z,1.40
2019-01-13T11:17:52.901Z,1.50
2019-01-13T11:18:52.891Z,1.30
2019-01-13T11:19:52.883Z,1.30
2019-01-13T11:20:52.878Z,1.40
2019-01-13T11:21:52.858Z,1.50
2019-01-13T11:22:52.851Z,1.60
2019-01-13T11:23:52.839Z,1.60
2019-01-13T11:24:52.825Z,1.40
2019-01-13T11:25:52.828Z,1.60
2019-01-13T11:26:52.825Z,1.70
2019-01-13T11:27:52.795Z,1.40
2019-01-13T11:28:52.783Z,1.50
2019-01-13T11:29:52.775Z,1.30
2019-01-13T11:30:52.762Z,1.60
2019-01-13T11:31:52.755Z,1.60
2019-01-13T11:32:52.758Z,1.40
2019-01-13T11:33:52.733Z,1.60
2019-01-13T11:34:52.721Z,1.80
2019-01-13T11:35:52.710Z,1.20
2019-01-13T11:36:52.731Z,1.30
2019-01-13T11:37:52.704Z,1.20
2019-01-13T11:38:52.689Z,1.60
2019-01-13T11:39:52.666Z,1.40
2019-01-13T11:40:52.655Z,1.20
2019-01-13T11:41:52.645Z,1.40
2019-01-13T11:42:52.644Z,1.40
2019-01-13T11:43:52.620Z,1.40
2019-01-13T11:44:52.612Z,1.40
2019-01-13T11:45:52.603Z,1.20
2019-01-13T11:46:52.590Z,1.20
2019-01-13T11:47:52.589Z,1.00
2019-01-13T11:48:52.568Z,1.00
2019-01-13T11:49:52.557Z,1.10
2019-01-13T11:50:52.547Z,1.20
2019-01-13T11:51:52.536Z,1.10
2019-01-13T11:52:52.554Z,1.10
2019-01-13T11:53:52.514Z,1.20
2019-01-13T11:54:52.500Z,1.00
2019-01-13T11:55:52.490Z,1.30
2019-01-13T11:56:52.479Z,1.50
2019-01-13T11:57:52.473Z,1.00
2019-01-13T11:58:52.472Z,0.90
2019-01-13T11:59:52.451Z,0.90
2019-01-13T12:00:52.438Z,1.10
2019-01-13T12:01:52.426Z,1.30
2019-01-13T12:02:52.417Z,1.20
2019-01-13T12:03:52.406Z,1.20
2019-01-13T12:04:52.405Z,1.10
2019-01-13T12:05:52.383Z,1.20
2019-01-13T12:06:52.374Z,1.30
2019-01-13T12:07:52.363Z,1.20
2019-01-13T12:08:52.388Z,1.10
2019-01-13T12:09:52.342Z,1.00
2019-01-13T12:10:52.329Z,1.10
2019-01-13T12:11:52.318Z,1.30
2019-01-13T12:12:52.309Z,1.10
2019-01-13T12:13:52.296Z,1.10
2019-01-13T12:14:52.298Z,1.40
2019-01-13T12:15:52.278Z,0.80
2019-01-13T12:16:52.265Z,1.00
2019-01-13T12:17:52.253Z,1.00
2019-01-13T12:18:52.257Z,1.00
2019-01-13T12:19:52.258Z,0.80
2019-01-13T12:20:52.227Z,1.00
2019-01-13T12:21:52.215Z,1.10
2019-01-13T12:22:52.199Z,0.90
2019-01-13T12:23:52.189Z,0.90
2019-01-13T12:24:52.193Z,0.90
2019-01-13T12:25:52.786Z,0.80
2019-01-13T12:26:52.186Z,1.00
2019-01-13T12:27:52.150Z,1.00
2019-01-13T12:28:52.146Z,0.90
2019-01-13T12:29:52.127Z,0.70
2019-01-13T12:30:52.125Z,0.70
2019-01-13T12:31:52.102Z,0.70
2019-01-13T12:32:52.095Z,0.90
2019-01-13T12:33:52.084Z,0.80
2019-01-13T12:34:52.096Z,0.90
2019-01-13T12:35:52.061Z,0.90
2019-01-13T12:36:52.058Z,1.10
2019-01-13T12:37:52.048Z,0.90
2019-01-13T12:38:52.030Z,0.90
2019-01-13T12:39:52.056Z,1.00
2019-01-13T12:40:52.007Z,1.00
2019-01-13T12:41:51.994Z,0.90
2019-01-13T12:42:51.984Z,0.90
2019-01-13T12:43:51.976Z,1.00
2019-01-13T12:44:51.965Z,1.00
2019-01-13T12:45:51.965Z,1.10
2019-01-13T12:46:51.940Z,0.90
2019-01-13T12:47:51.929Z,0.70
2019-01-13T12:48:51.918Z,1.10
2019-01-13T12:49:51.922Z,1.10
2019-01-13T12:50:51.926Z,1.00
2019-01-13T12:51:51.888Z,0.90
2019-01-13T12:52:51.879Z,0.80
2019-01-13T12:53:51.875Z,1.00
2019-01-13T12:54:51.855Z,1.00
2019-01-13T12:55:51.846Z,0.90
2019-01-13T12:56:51.844Z,1.00
2019-01-13T12:57:51.844Z,1.20
2019-01-13T12:58:51.810Z,0.90
2019-01-13T12:59:51.800Z,1.00
2019-01-13T13:00:51.790Z,0.90
2019-01-13T13:01:51.778Z,1.10
2019-01-13T13:02:51.769Z,1.10
2019-01-13T13:03:51.770Z,1.00
2019-01-13T13:04:51.746Z,1.20
2019-01-13T13:05:51.739Z,0.90
2019-01-13T13:06:51.725Z,0.90